Darstellungsparameter: Aktuell verwendete Einstellungen:
Skalierung der Graphiken ... ?
xyx+y,   Skalierungsfaktor:      Skalierung: Modus: x, Faktor: 1
Darstellungszeitraum ... ?
Vom - - bis: - -   Zeitraum: 30.03.2010 - 30.03.2010
Min/Max/Avg-Anzeige ... ?
Zeige MMA aktuell
Zeige MMA Monat
Zeige MMA alles
Zeige --A aktuell
Zeige --A Monat
Zeige --A alles
Keine MMA-Anzeige
MMA:
Minimum Maximum Average (ber die Originaldaten)
MMA-Basis: 30.03.2010 - 30.03.2010
Quicknavigation für Darstellung... ?
Tage:      1T, 2T, 3T, 5T -1T -2T -3T -5T +1T +2T +3T +5T
Wochen: 1W, 2W, 3W -1W -2W -3W +1W +2W +3W
Monate: 1M, 3M, 6M -1M -3M -6M +1M +3M +6M
Jahre:    1J, 3J, 5J, 10J -1J -3J -5J -10J +1J +3J +5J +10J
Nutze für die Darstellung ... ?
Originaldaten oder Mittelwerte auf ...
Stundenbasis Tagesbasis Wochenbasis
Monatsbasis Jahresbasis      Datenbasis: Original-Daten
Darstellen als:
Statistik (Auto) Statistik J:M      Darstellung:
Zur Graphik,    zurück zur Übersicht aller Sensoren.
 
Tabellarische Datenbersicht: ?
 
Sensor: Nr:Datum:Temp:Abs-Feuchte:Windchill:Wind:
Aussen-T/F 1 30-03-2010 00:11:03 10.2 C 7.61 g/m*3 10.2 C 0 km/h
2 30-03-2010 00:23:03 10.3 C 7.66 g/m*3 10.3 C 0 km/h
3 30-03-2010 00:35:03 10.6 C 7.71 g/m*3 10.6 C 0 km/h
4 30-03-2010 00:47:03 10.7 C 7.66 g/m*3 10.7 C 0 km/h
5 30-03-2010 00:59:03 11.1 C 7.66 g/m*3 11.1 C 0 km/h
6 30-03-2010 01:11:03 11.3 C 7.65 g/m*3 11.3 C 0 km/h
7 30-03-2010 01:23:03 11.3 C 7.65 g/m*3 11.3 C 0 km/h
8 30-03-2010 01:35:03 11.3 C 7.55 g/m*3 11.3 C 0 km/h
9 30-03-2010 01:47:03 11 C 7.41 g/m*3 11 C 0 km/h
10 30-03-2010 01:59:03 11.1 C 7.35 g/m*3 11.1 C 0 km/h
11 30-03-2010 02:11:03 11.3 C 7.24 g/m*3 11.3 C 0 km/h
12 30-03-2010 02:23:03 11.3 C 7.24 g/m*3 11.3 C 0 km/h
13 30-03-2010 02:35:03 11.1 C 7.25 g/m*3 11.1 C 0 km/h
14 30-03-2010 02:47:04 11.7 C 7.22 g/m*3 11.7 C 0 km/h
15 30-03-2010 02:59:04 11.6 C 7.17 g/m*3 11.6 C 0 km/h
16 30-03-2010 03:11:04 11.3 C 7.14 g/m*3 11.3 C 0 km/h
17 30-03-2010 03:23:04 11.3 C 7.24 g/m*3 11.3 C 0 km/h
18 30-03-2010 03:35:04 10.9 C 7.16 g/m*3 10.9 C 0 km/h
19 30-03-2010 03:47:04 10.8 C 7.22 g/m*3 10.8 C 0 km/h
20 30-03-2010 03:59:04 11 C 7.21 g/m*3 11 C 0 km/h
21 30-03-2010 04:11:04 11.4 C 7.29 g/m*3 11.4 C 0 km/h
22 30-03-2010 04:23:04 11.4 C 7.19 g/m*3 11.4 C 0 km/h
23 30-03-2010 04:35:04 11.5 C 7.13 g/m*3 11.5 C 0 km/h
24 30-03-2010 04:47:04 11.4 C 7.08 g/m*3 11.4 C 0 km/h
25 30-03-2010 04:59:04 11.3 C 7.14 g/m*3 11.3 C 0 km/h
Sensor: Nr:Datum:Temp:Abs-Feuchte:Windchill:Wind:
Aussen-T/F 26 30-03-2010 05:11:04 11.4 C 7.29 g/m*3 11.4 C 0 km/h
27 30-03-2010 05:23:04 11.1 C 7.05 g/m*3 11.1 C 0 km/h
28 30-03-2010 05:35:04 11 C 7.01 g/m*3 11 C 0 km/h
29 30-03-2010 05:47:04 10.7 C 7.07 g/m*3 10.7 C 0 km/h
30 30-03-2010 05:59:04 10.5 C 6.98 g/m*3 10.5 C 0 km/h
31 30-03-2010 06:11:04 10.5 C 7.08 g/m*3 10.5 C 0 km/h
32 30-03-2010 06:23:04 10.3 C 7.09 g/m*3 10.3 C 0 km/h
33 30-03-2010 06:35:04 10 C 6.95 g/m*3 10 C 0 km/h
34 30-03-2010 06:47:04 9.8 C 7.14 g/m*3 9.8 C 0 km/h
35 30-03-2010 06:59:04 9.8 C 7.24 g/m*3 9.8 C 0 km/h
36 30-03-2010 07:11:01 10 C 7.14 g/m*3 10 C 0 km/h
37 30-03-2010 07:23:02 10.2 C 7.04 g/m*3 10.2 C 0 km/h
38 30-03-2010 07:35:02 10.5 C 6.89 g/m*3 10.5 C 0 km/h
39 30-03-2010 07:47:02 10.6 C 6.83 g/m*3 10.6 C 0 km/h
40 30-03-2010 07:59:02 10.7 C 6.88 g/m*3 10.7 C 0 km/h
41 30-03-2010 08:11:02 10.7 C 6.88 g/m*3 10.7 C 0 km/h
42 30-03-2010 08:23:02 11 C 6.91 g/m*3 11 C 0 km/h
43 30-03-2010 08:35:02 11.1 C 6.85 g/m*3 11.1 C 0 km/h
44 30-03-2010 08:47:01 11.4 C 6.67 g/m*3 11.4 C 0 km/h
45 30-03-2010 08:59:01 11.4 C 6.77 g/m*3 11.4 C 0 km/h
46 30-03-2010 09:11:02 11.8 C 6.95 g/m*3 11.8 C 0 km/h
47 30-03-2010 09:23:01 12.2 C 6.69 g/m*3 12.2 C 0 km/h
48 30-03-2010 09:35:02 12.6 C 6.75 g/m*3 12.6 C 0 km/h
49 30-03-2010 09:47:02 12.9 C 6.54 g/m*3 12.9 C 0 km/h
50 30-03-2010 09:59:02 13.1 C 6.39 g/m*3 13.1 C 0 km/h
Sensor: Nr:Datum:Temp:Abs-Feuchte:Windchill:Wind:
Aussen-T/F 51 30-03-2010 10:11:02 13.2 C 6.43 g/m*3 13.2 C 0 km/h
52 30-03-2010 10:23:01 13.1 C 5.93 g/m*3 13.1 C 0 km/h
53 30-03-2010 10:35:02 14.2 C 6.11 g/m*3 14.2 C 0 km/h
54 30-03-2010 10:47:02 14.4 C 5.07 g/m*3 14.4 C 0 km/h
55 30-03-2010 10:59:02 14.1 C 4.85 g/m*3 14.1 C 0 km/h
56 30-03-2010 11:11:02 14.1 C 4.98 g/m*3 14.1 C 0 km/h
57 30-03-2010 11:23:01 15 C 4.74 g/m*3 15 C 0 km/h
58 30-03-2010 11:35:02 15.2 C 4.67 g/m*3 15.2 C 0 km/h
59 30-03-2010 11:47:02 15.3 C 4.57 g/m*3 15.3 C 0 km/h
60 30-03-2010 11:59:02 15.8 C 4.71 g/m*3 15.8 C 0 km/h
61 30-03-2010 12:11:02 16 C 4.63 g/m*3 16 C 0 km/h
62 30-03-2010 12:23:02 16.2 C 4.55 g/m*3 16.2 C 0 km/h
63 30-03-2010 12:35:02 16.6 C 4.66 g/m*3 16.6 C 0 km/h
64 30-03-2010 12:47:02 16.7 C 4.55 g/m*3 16.7 C 0 km/h
65 30-03-2010 12:59:02 17.2 C 4.69 g/m*3 17.2 C 0 km/h
66 30-03-2010 13:11:02 17.4 C 4.59 g/m*3 17.4 C 0 km/h
67 30-03-2010 13:23:02 17.3 C 4.71 g/m*3 17.3 C 0 km/h
68 30-03-2010 13:35:02 17.7 C 4.83 g/m*3 17.7 C 0 km/h
69 30-03-2010 13:47:02 18.1 C 4.79 g/m*3 18.1 C 0 km/h
70 30-03-2010 13:59:02 18.2 C 4.66 g/m*3 18.2 C 0 km/h
71 30-03-2010 14:11:02 18.5 C 4.9 g/m*3 18.5 C 0 km/h
72 30-03-2010 14:23:02 18.9 C 4.7 g/m*3 18.9 C 0 km/h
73 30-03-2010 14:35:01 18.3 C 4.53 g/m*3 18.3 C 0 km/h
74 30-03-2010 14:47:02 18 C 4.61 g/m*3 18 C 0 km/h
75 30-03-2010 14:59:02 17.7 C 4.68 g/m*3 17.7 C 0 km/h
Sensor: Nr:Datum:Temp:Abs-Feuchte:Windchill:Wind:
Aussen-T/F 76 30-03-2010 15:11:01 17.9 C 4.58 g/m*3 17.9 C 0 km/h
77 30-03-2010 15:23:01 17.7 C 4.68 g/m*3 17.7 C 0 km/h
78 30-03-2010 15:35:02 18.6 C 4.62 g/m*3 18.6 C 0 km/h
79 30-03-2010 15:47:02 18.7 C 4.48 g/m*3 18.7 C 0 km/h
80 30-03-2010 15:59:03 18.2 C 4.51 g/m*3 18.2 C 0 km/h
81 30-03-2010 16:11:02 18.7 C 4.64 g/m*3 18.7 C 0 km/h
82 30-03-2010 16:23:02 17.5 C 5.22 g/m*3 17.5 C 0 km/h
83 30-03-2010 16:35:02 16.4 C 5.58 g/m*3 16.4 C 0 km/h
84 30-03-2010 16:47:01 15.9 C 5.55 g/m*3 15.9 C 0 km/h
85 30-03-2010 16:59:01 15.6 C 5.45 g/m*3 15.6 C 0 km/h
86 30-03-2010 17:11:02 14.9 C 5.48 g/m*3 14.9 C 0 km/h
87 30-03-2010 17:23:01 14.4 C 5.44 g/m*3 14.4 C 0 km/h
88 30-03-2010 17:35:02 14.2 C 5.49 g/m*3 14.2 C 0 km/h
89 30-03-2010 17:47:02 14 C 5.43 g/m*3 14 C 0 km/h
90 30-03-2010 17:59:02 13.8 C 5.48 g/m*3 13.8 C 0 km/h
91 30-03-2010 18:11:02 13.6 C 5.65 g/m*3 13.6 C 0 km/h
92 30-03-2010 18:23:02 13.3 C 5.89 g/m*3 13.3 C 0 km/h
93 30-03-2010 18:35:02 12.9 C 6.2 g/m*3 12.9 C 0 km/h
94 30-03-2010 18:47:02 12 C 6.39 g/m*3 12 C 0 km/h
95 30-03-2010 18:59:02 11.6 C 6.65 g/m*3 11.6 C 0 km/h
96 30-03-2010 19:11:02 11.5 C 6.82 g/m*3 11.5 C 0 km/h
97 30-03-2010 19:23:02 11.1 C 6.65 g/m*3 11.1 C 0 km/h
98 30-03-2010 19:35:02 11.3 C 6.73 g/m*3 11.3 C 0 km/h
99 30-03-2010 19:47:01 11.4 C 6.67 g/m*3 11.4 C 0 km/h
100 30-03-2010 19:59:01 11.3 C 6.43 g/m*3 11.3 C 0 km/h
Sensor: Nr:Datum:Temp:Abs-Feuchte:Windchill:Wind:
Aussen-T/F 101 30-03-2010 20:11:02 10.9 C 6.47 g/m*3 10.9 C 0 km/h
102 30-03-2010 20:23:01 10.5 C 6.4 g/m*3 10.5 C 0 km/h
103 30-03-2010 20:35:01 10.6 C 6.44 g/m*3 10.6 C 0 km/h
104 30-03-2010 20:47:01 10.7 C 6.38 g/m*3 10.7 C 0 km/h
105 30-03-2010 20:59:01 10.7 C 6.29 g/m*3 10.7 C 0 km/h
106 30-03-2010 21:11:02 10.4 C 6.36 g/m*3 10.4 C 0 km/h
107 30-03-2010 21:23:01 10.1 C 6.24 g/m*3 10.1 C 0 km/h
108 30-03-2010 21:35:01 10 C 6.3 g/m*3 10 C 0 km/h
109 30-03-2010 21:47:01 9.8 C 6.31 g/m*3 9.8 C 0 km/h
110 30-03-2010 21:59:01 9.7 C 6.27 g/m*3 9.7 C 0 km/h
111 30-03-2010 22:11:02 9.4 C 6.24 g/m*3 9.4 C 0 km/h
112 30-03-2010 22:23:02 9.3 C 6.29 g/m*3 9.3 C 0 km/h
113 30-03-2010 22:36:04 9.6 C 6.32 g/m*3 9.6 C 0 km/h
114 30-03-2010 22:48:05 9.8 C 6.12 g/m*3 9.8 C 0 km/h
115 30-03-2010 23:00:05 10.2 C 5.8 g/m*3 10.2 C 0 km/h
116 30-03-2010 23:12:05 10.6 C 5.76 g/m*3 10.6 C 0 km/h
117 30-03-2010 23:24:05 7.9 C 5.83 g/m*3 7.9 C 0 km/h
118 30-03-2010 23:36:05 7.4 C 5.49 g/m*3 7.4 C 0 km/h
119 30-03-2010 23:48:05 7.3 C 5.37 g/m*3 7.3 C 0 km/h

Legende:
   Min
   Max


Maximal/Minimal-Werte vom 30.03.2010 - 30.03.2010

Sensor Min Max Avg
Temp
(Aussen-T/F)
7.3 °C
30-03-2010  23:48:05
18.9 °C
30-03-2010  14:23:02
12.71 °C
Abs-Feuchte
(Aussen-T/F)
4.48 g/m*3
30-03-2010  15:47:02
7.71 g/m*3
30-03-2010  00:35:03
6.14 g/m*3
Windchill
(Aussen-T/F)
7.3 C
30-03-2010  23:48:05
18.9 C
30-03-2010  14:23:02
12.6 C

Die Daten stammen von einer Davis Vantage Pro 2 Wetter-Station und werden unter Linux mit der Software wview2wettercgi und aufbereitet. Alle Angaben erfolgen ohne Gewähr für ihre Vollständigkeit oder Richtigkeit.
Kontakt: Rainer Krienke krienke@uni-koblenz.de . Meine Webseiten an der Uni Koblenz oder privat.
Version: $Revision: 0.78 $